Time;durP1;ratioP1;P1;durP2;ratioP2;P2;SDS_P1;SDS_P2;PMS_P1;PMS_P2;Temp;Humidity;BMP_temperature;BMP_pressure;BME280_temperature;BME280_humidity;BME280_pressure;Samples;Min_cycle;Max_cycle;Signal;HPM_P1;HPM_P2
2021/12/09 00:00:37;;;;;;;52.33;22.27;;;;;;;0.19;100.00;99793.59;6717399;26;34135;-66
2021/12/09 00:03:42;;;;;;;53.92;24.52;;;;;;;0.17;100.00;99775.44;6717401;26;34045;-65
2021/12/09 00:06:45;;;;;;;48.85;23.35;;;;;;;0.15;100.00;99771.28;6717366;26;34381;-66
2021/12/09 00:09:47;;;;;;;55.45;25.75;;;;;;;0.07;100.00;99761.44;6717141;26;35404;-66
2021/12/09 00:12:50;;;;;;;56.55;24.77;;;;;;;-0.03;100.00;99756.09;6717122;26;34987;-66
2021/12/09 00:15:53;;;;;;;56.60;25.50;;;;;;;-0.03;100.00;99743.06;6717271;26;34674;-65
2021/12/09 00:18:56;;;;;;;58.33;25.60;;;;;;;-0.03;100.00;99743.06;6717746;26;34558;-66
2021/12/09 00:22:09;;;;;;;51.63;25.20;;;;;;;0.00;100.00;99735.00;6698680;26;33991;-66
2021/12/09 00:25:14;;;;;;;61.95;28.45;;;;;;;-0.12;100.00;99728.13;6717301;26;33737;-65
2021/12/09 00:28:17;;;;;;;61.75;27.65;;;;;;;-0.16;100.00;99734.50;6717051;26;34077;-66
2021/12/09 00:31:19;;;;;;;61.95;27.55;;;;;;;-0.18;100.00;99746.81;6717020;26;33988;-66
2021/12/09 00:34:30;;;;;;;54.47;27.58;;;;;;;-0.13;100.00;99751.69;6697580;26;34634;-65
2021/12/09 00:37:50;;;;;;;;;;;;;;;0.01;100.00;99751.47;6717317;26;34040;-65
2021/12/09 00:40:53;;;;;;;63.33;28.67;;;;;;;-0.12;100.00;99753.34;6697306;26;33724;-65
2021/12/09 00:43:55;;;;;;;57.53;24.35;;;;;;;-0.22;100.00;99748.00;6717057;26;34559;-66
2021/12/09 00:46:58;;;;;;;57.60;24.20;;;;;;;-0.24;100.00;99742.06;6717415;26;34592;-66
2021/12/09 00:50:02;;;;;;;59.05;24.80;;;;;;;-0.14;100.00;99752.62;6716945;26;34546;-66
2021/12/09 00:53:04;;;;;;;61.20;25.23;;;;;;;-0.15;100.00;99728.34;6717401;26;33767;-66
2021/12/09 00:56:10;;;;;;;56.80;24.17;;;;;;;-0.13;100.00;99725.63;6716940;26;33921;-66
2021/12/09 00:59:13;;;;;;;66.35;27.92;;;;;;;-0.13;100.00;99721.22;6716895;26;34800;-68
2021/12/09 01:02:16;;;;;;;64.30;28.00;;;;;;;-0.24;100.00;99717.78;6717130;26;34594;-66
2021/12/09 01:05:19;;;;;;;66.12;27.40;;;;;;;-0.24;100.00;99717.78;6716971;26;34511;-66
2021/12/09 01:08:21;;;;;;;62.40;25.42;;;;;;;-0.18;100.00;99717.31;6716916;26;34661;-66
2021/12/09 01:11:24;;;;;;;67.20;26.20;;;;;;;-0.09;100.00;99708.78;6716961;26;33727;-66
2021/12/09 01:14:27;;;;;;;60.10;25.85;;;;;;;-0.07;100.00;99706.91;6716837;26;34233;-66
2021/12/09 01:17:30;;;;;;;61.90;27.35;;;;;;;-0.18;100.00;99707.72;6697196;26;34665;-66
2021/12/09 01:20:33;;;;;;;62.00;25.95;;;;;;;-0.09;100.00;99712.22;6716870;26;34662;-66
2021/12/09 01:23:36;;;;;;;57.30;24.70;;;;;;;-0.13;100.00;99705.59;6716799;26;35077;-67
2021/12/09 01:26:39;;;;;;;55.67;23.12;;;;;;;-0.09;100.00;99707.00;6716996;26;33529;-65
2021/12/09 01:29:51;;;;;;;61.25;24.77;;;;;;;-0.21;100.00;99710.56;6696768;26;33865;-67
2021/12/09 01:32:55;;;;;;;66.35;27.50;;;;;;;-0.20;100.00;99707.03;6697196;26;34824;-67
2021/12/09 01:35:58;;;;;;;65.50;27.52;;;;;;;-0.22;100.00;99702.84;6716615;26;34571;-67
2021/12/09 01:39:04;;;;;;;59.13;26.85;;;;;;;-0.25;100.00;99692.66;6717188;26;34710;-68
2021/12/09 01:42:07;;;;;;;64.90;29.30;;;;;;;-0.32;100.00;99702.72;6716655;26;34130;-68
2021/12/09 01:45:10;;;;;;;61.78;27.73;;;;;;;-0.31;100.00;99699.16;6716995;26;34734;-68
2021/12/09 01:48:13;;;;;;;59.33;24.87;;;;;;;-0.29;100.00;99680.81;6716793;26;34703;-68
2021/12/09 01:51:17;;;;;;;53.75;23.38;;;;;;;-0.26;100.00;99677.97;6696747;26;34289;-68
2021/12/09 01:54:23;;;;;;;57.95;23.73;;;;;;;-0.32;100.00;99673.22;6696895;26;34164;-65
2021/12/09 01:57:26;;;;;;;55.85;23.27;;;;;;;-0.35;100.00;99661.25;6716608;26;34531;-68
2021/12/09 02:00:31;;;;;;;57.80;23.77;;;;;;;-0.40;100.00;99665.16;6716743;26;34195;-65
2021/12/09 02:03:38;;;;;;;60.95;26.62;;;;;;;-0.41;100.00;99666.09;6716528;26;34615;-67
2021/12/09 02:06:43;;;;;;;53.70;25.08;;;;;;;-0.42;100.00;99662.66;6717604;26;33737;-68
2021/12/09 02:09:46;;;;;;;58.22;26.52;;;;;;;-0.36;100.00;99656.16;6717749;26;34714;-67
2021/12/09 02:12:50;;;;;;;60.12;26.15;;;;;;;-0.44;100.00;99657.56;6717871;26;33910;-67
2021/12/09 02:15:55;;;;;;;52.75;21.87;;;;;;;-0.40;100.00;99660.78;6717693;26;33965;-66
2021/12/09 02:18:59;;;;;;;51.53;21.37;;;;;;;-0.44;100.00;99667.19;6717779;26;34928;-66
2021/12/09 02:22:02;;;;;;;58.70;24.52;;;;;;;-0.39;100.00;99664.22;6698073;26;33893;-68
2021/12/09 02:25:05;;;;;;;53.90;24.48;;;;;;;-0.33;100.00;99648.09;6717835;26;34635;-68
2021/12/09 02:28:08;;;;;;;52.22;24.10;;;;;;;-0.21;100.00;99637.59;6717829;26;33943;-66
2021/12/09 02:31:11;;;;;;;53.60;25.90;;;;;;;-0.30;100.00;99624.44;6717387;26;34118;-66
2021/12/09 02:34:14;;;;;;;45.00;19.65;;;;;;;-0.33;100.00;99643.72;6698001;26;34562;-65
2021/12/09 02:37:18;;;;;;;55.10;22.48;;;;;;;-0.32;100.00;99642.78;6713103;26;117186;-66
2021/12/09 02:40:21;;;;;;;52.92;22.75;;;;;;;-0.23;100.00;99647.28;6697816;26;33925;-67
2021/12/09 02:43:29;;;;;;;49.47;23.60;;;;;;;-0.31;100.00;99651.44;6717644;26;34661;-65
2021/12/09 02:46:36;;;;;;;49.38;23.33;;;;;;;-0.22;100.00;99654.16;6717724;26;34026;-65
2021/12/09 02:49:39;;;;;;;47.97;21.02;;;;;;;-0.29;100.00;99639.94;6717476;26;34752;-66
2021/12/09 02:52:41;;;;;;;48.58;20.62;;;;;;;-0.25;100.00;99633.56;6717875;26;33818;-65
2021/12/09 02:55:45;;;;;;;43.58;20.05;;;;;;;-0.28;100.00;99635.53;6718074;26;33059;-65
2021/12/09 02:58:47;;;;;;;42.42;19.48;;;;;;;-0.18;100.00;99631.28;6717607;26;33962;-67
2021/12/09 03:01:57;;;;;;;46.95;20.35;;;;;;;-0.16;100.00;99655.47;6717590;26;34599;-67
2021/12/09 03:05:03;;;;;;;47.35;20.10;;;;;;;-0.14;100.00;99666.59;6718075;26;35330;-67
2021/12/09 03:08:06;;;;;;;49.30;21.60;;;;;;;-0.17;100.00;99635.56;6717649;26;34252;-67
2021/12/09 03:11:15;;;;;;;49.25;21.65;;;;;;;-0.11;100.00;99635.94;6717581;26;33943;-67
2021/12/09 03:14:18;;;;;;;44.88;19.95;;;;;;;-0.11;100.00;99646.34;6717517;26;34041;-67
2021/12/09 03:17:21;;;;;;;47.47;19.98;;;;;;;-0.14;100.00;99630.09;6717122;26;33736;-66
2021/12/09 03:20:24;;;;;;;47.35;20.67;;;;;;;-0.10;100.00;99597.66;6717532;26;33970;-66
2021/12/09 03:23:28;;;;;;;48.75;20.52;;;;;;;-0.17;100.00;99594.69;6717594;26;34256;-65
2021/12/09 03:26:35;;;;;;;49.83;20.42;;;;;;;-0.12;100.00;99599.53;6717572;26;34037;-66
2021/12/09 03:29:39;;;;;;;55.40;23.45;;;;;;;-0.10;100.00;99621.94;6717473;26;34379;-65
2021/12/09 03:32:42;;;;;;;49.75;22.50;;;;;;;-0.11;100.00;99633.31;6717414;26;34654;-66
2021/12/09 03:35:45;;;;;;;53.85;21.60;;;;;;;-0.01;100.00;99628.22;6717309;26;33403;-66
2021/12/09 03:38:48;;;;;;;56.45;23.75;;;;;;;0.07;100.00;99635.44;6717729;26;33625;-65
2021/12/09 03:41:54;;;;;;;48.60;21.23;;;;;;;0.06;100.00;99610.31;6697664;26;34459;-66
2021/12/09 03:44:58;;;;;;;46.42;21.58;;;;;;;0.05;100.00;99595.63;6717349;26;33985;-65
2021/12/09 03:48:02;;;;;;;44.55;20.77;;;;;;;-0.05;100.00;99592.91;6717534;26;33669;-65
2021/12/09 03:51:05;;;;;;;44.53;19.70;;;;;;;0.03;100.00;99587.91;6717281;26;34176;-66
2021/12/09 03:54:10;;;;;;;50.08;21.67;;;;;;;0.05;100.00;99600.84;6717445;26;34429;-66
2021/12/09 03:57:14;;;;;;;45.28;20.40;;;;;;;0.02;100.00;99609.72;6717496;26;33947;-66
2021/12/09 04:00:17;;;;;;;43.53;20.00;;;;;;;0.02;100.00;99614.09;6717316;26;33985;-66
2021/12/09 04:03:19;;;;;;;38.45;19.42;;;;;;;0.09;100.00;99620.50;6717285;26;34297;-66
2021/12/09 04:06:22;;;;;;;45.03;19.48;;;;;;;0.15;100.00;99620.84;6717335;26;33957;-65
2021/12/09 04:09:26;;;;;;;45.03;19.83;;;;;;;0.14;100.00;99614.00;6717298;26;34740;-65
2021/12/09 04:12:29;;;;;;;42.03;18.25;;;;;;;0.11;100.00;99610.78;6717274;26;33912;-66
2021/12/09 04:15:32;;;;;;;39.00;17.10;;;;;;;0.25;100.00;99615.72;6717212;26;34772;-65
2021/12/09 04:18:36;;;;;;;41.35;18.60;;;;;;;0.20;100.00;99617.88;6697519;26;34175;-66
2021/12/09 04:21:42;;;;;;;39.30;18.33;;;;;;;0.16;100.00;99606.03;6717301;26;34021;-65
2021/12/09 04:24:45;;;;;;;38.13;18.42;;;;;;;0.13;100.00;99606.28;6717604;26;34551;-65
2021/12/09 04:27:50;;;;;;;37.95;17.95;;;;;;;0.31;100.00;99607.44;6697357;26;33995;-65
2021/12/09 04:30:53;;;;;;;35.60;17.67;;;;;;;0.26;100.00;99591.31;6717165;26;33794;-66
2021/12/09 04:33:56;;;;;;;38.13;17.23;;;;;;;0.20;100.00;99586.56;6697432;26;34860;-66
2021/12/09 04:37:00;;;;;;;38.03;18.60;;;;;;;0.18;100.00;99580.66;6717216;26;33943;-66
2021/12/09 04:40:08;;;;;;;41.85;17.67;;;;;;;0.16;100.00;99604.25;6717191;26;34052;-65
2021/12/09 04:43:11;;;;;;;37.88;17.30;;;;;;;0.19;100.00;99617.06;6717184;26;34094;-66
2021/12/09 04:46:15;;;;;;;35.88;17.77;;;;;;;0.18;100.00;99612.81;6717353;26;33967;-66
2021/12/09 04:49:18;;;;;;;35.42;15.98;;;;;;;0.16;100.00;99613.84;6717168;26;34115;-66
2021/12/09 04:52:21;;;;;;;35.08;16.73;;;;;;;0.14;100.00;99608.78;6717059;26;33936;-67
2021/12/09 04:55:24;;;;;;;32.63;15.27;;;;;;;0.17;100.00;99615.53;6716830;26;34720;-66
2021/12/09 04:58:28;;;;;;;34.90;16.40;;;;;;;0.23;100.00;99622.88;6717012;26;33924;-66
2021/12/09 05:01:30;;;;;;;33.72;16.40;;;;;;;0.22;100.00;99619.44;6697117;26;34744;-66
2021/12/09 05:04:34;;;;;;;30.33;15.15;;;;;;;0.25;100.00;99606.13;6697238;26;34755;-67
2021/12/09 05:07:36;;;;;;;32.28;15.38;;;;;;;0.33;100.00;99590.72;6716960;26;33950;-68
2021/12/09 05:11:29;;;;;;;27.30;14.45;;;;;;;0.30;100.00;99603.16;6716675;26;34822;-68
2021/12/09 05:14:13;;;;;;;29.77;14.48;;;;;;;0.29;100.00;99597.09;6714782;26;34328;-66
2021/12/09 05:17:18;;;;;;;29.08;14.00;;;;;;;0.26;100.00;99605.19;6716619;26;34641;-68
2021/12/09 05:20:22;;;;;;;27.75;13.77;;;;;;;0.29;100.00;99598.91;6717274;26;34020;-66
2021/12/09 05:23:25;;;;;;;30.37;15.38;;;;;;;0.36;100.00;99607.91;6716446;26;34177;-65
2021/12/09 05:26:33;;;;;;;35.38;15.50;;;;;;;0.40;100.00;99601.47;6716730;26;34484;-66
2021/12/09 05:29:40;;;;;;;32.63;14.82;;;;;;;0.25;100.00;99600.09;6716495;26;34677;-68
2021/12/09 05:32:42;;;;;;;34.63;16.17;;;;;;;0.29;100.00;99601.53;6716993;26;34275;-68
2021/12/09 05:35:45;;;;;;;33.33;16.25;;;;;;;0.29;100.00;99594.50;6716800;26;34017;-65
2021/12/09 05:38:48;;;;;;;33.70;17.27;;;;;;;0.23;100.00;99602.84;6716709;26;33755;-67
2021/12/09 05:41:53;;;;;;;45.10;19.75;;;;;;;0.22;100.00;99590.72;6717683;26;34683;-66
2021/12/09 05:44:57;;;;;;;45.47;21.08;;;;;;;0.23;100.00;99581.97;6698089;26;34389;-66
2021/12/09 05:47:59;;;;;;;44.90;20.88;;;;;;;0.26;100.00;99597.37;6718129;26;34634;-68
2021/12/09 05:51:02;;;;;;;47.67;19.62;;;;;;;0.28;100.00;99594.63;6717647;26;33972;-65
2021/12/09 05:54:06;;;;;;;42.90;21.12;;;;;;;0.29;100.00;99597.09;6717905;26;33906;-67
2021/12/09 05:57:09;;;;;;;53.30;24.12;;;;;;;0.30;100.00;99567.47;6717691;26;33883;-66
2021/12/09 06:00:12;;;;;;;48.85;22.35;;;;;;;0.26;100.00;99579.09;6717771;26;34471;-68
2021/12/09 06:03:15;;;;;;;48.50;22.25;;;;;;;0.26;100.00;99571.28;6717719;26;34073;-68
2021/12/09 06:06:18;;;;;;;46.42;22.13;;;;;;;0.22;100.00;99551.59;6717291;26;34293;-68
2021/12/09 06:09:21;;;;;;;52.67;24.25;;;;;;;0.30;100.00;99538.78;6717885;26;34649;-68
2021/12/09 06:12:24;;;;;;;50.72;25.00;;;;;;;0.24;100.00;99528.81;6716796;26;33991;-68
2021/12/09 06:15:27;;;;;;;42.90;19.48;;;;;;;0.25;100.00;99529.66;6716504;26;33839;-68
2021/12/09 06:18:30;;;;;;;44.05;20.88;;;;;;;0.25;100.00;99533.09;6717286;26;34892;-68
2021/12/09 06:21:32;;;;;;;48.17;21.77;;;;;;;0.27;100.00;99552.06;6717623;26;34661;-68
2021/12/09 06:24:35;;;;;;;47.25;21.33;;;;;;;0.34;100.00;99549.78;6716916;26;33699;-68
2021/12/09 06:27:38;;;;;;;46.25;21.00;;;;;;;0.37;100.00;99546.94;6716884;26;34697;-68
2021/12/09 06:30:41;;;;;;;39.08;19.87;;;;;;;0.40;100.00;99552.72;6717050;26;33848;-68
2021/12/09 06:33:44;;;;;;;40.90;19.12;;;;;;;0.52;100.00;99537.88;6717484;26;34108;-68
2021/12/09 06:36:46;;;;;;;36.58;17.48;;;;;;;0.44;100.00;99538.50;6696499;26;34850;-68
2021/12/09 06:39:49;;;;;;;37.58;17.95;;;;;;;0.42;100.00;99535.19;6716585;26;35250;-66
2021/12/09 06:42:53;;;;;;;34.78;17.52;;;;;;;0.43;100.00;99531.62;6716228;26;34023;-66
2021/12/09 06:45:57;;;;;;;34.22;17.52;;;;;;;0.38;100.00;99540.78;6716717;26;35111;-66
2021/12/09 06:49:00;;;;;;;36.70;18.52;;;;;;;0.46;100.00;99543.59;6716403;26;34667;-66
2021/12/09 06:52:03;;;;;;;41.75;18.42;;;;;;;0.43;100.00;99552.50;6716814;26;34481;-66
2021/12/09 06:55:09;;;;;;;34.40;16.55;;;;;;;0.59;100.00;99548.63;6716957;26;33746;-66
2021/12/09 06:58:12;;;;;;;35.78;16.30;;;;;;;0.49;100.00;99547.72;6716753;26;34096;-66
2021/12/09 07:01:16;;;;;;;39.60;19.12;;;;;;;0.46;100.00;99537.53;6716857;26;34122;-66
2021/12/09 07:04:18;;;;;;;33.20;15.30;;;;;;;0.48;100.00;99531.25;6716467;26;34862;-66
2021/12/09 07:07:21;;;;;;;31.70;16.08;;;;;;;0.64;100.00;99536.87;6717159;26;34869;-68
2021/12/09 07:10:24;;;;;;;35.15;16.83;;;;;;;0.67;100.00;99547.06;6716466;26;34113;-67
2021/12/09 07:13:30;;;;;;;35.40;16.73;;;;;;;0.53;100.00;99554.38;6715163;26;34810;-68
2021/12/09 07:16:33;;;;;;;32.80;15.88;;;;;;;0.56;100.00;99536.66;6716990;26;34056;-68
2021/12/09 07:19:36;;;;;;;35.30;15.60;;;;;;;0.51;100.00;99554.47;6715893;26;34102;-68
2021/12/09 07:22:38;;;;;;;36.47;16.58;;;;;;;0.52;100.00;99557.94;6715775;26;33976;-67
2021/12/09 07:25:41;;;;;;;32.95;15.63;;;;;;;0.44;100.00;99564.56;6713029;26;34024;-67
2021/12/09 07:28:44;;;;;;;35.28;14.85;;;;;;;0.55;100.00;99563.72;6715956;26;33815;-68
2021/12/09 07:31:47;;;;;;;35.63;15.32;;;;;;;0.59;100.00;99572.94;6716176;26;34535;-68
2021/12/09 07:34:49;;;;;;;29.50;14.93;;;;;;;0.70;100.00;99582.53;6696896;26;34223;-67
2021/12/09 07:37:52;;;;;;;29.10;14.43;;;;;;;0.72;100.00;99578.84;6716029;26;34186;-67
2021/12/09 07:40:55;;;;;;;32.40;14.98;;;;;;;0.66;100.00;99558.47;6716735;26;35441;-67
2021/12/09 07:44:01;;;;;;;34.08;13.85;;;;;;;0.69;100.00;99550.38;6716790;26;35521;-67
2021/12/09 07:47:04;;;;;;;32.17;14.43;;;;;;;0.73;100.00;99536.09;6717056;26;34058;-67
2021/12/09 07:50:11;;;;;;;30.20;13.77;;;;;;;0.81;100.00;99532.88;6716752;26;33969;-65
2021/12/09 07:53:14;;;;;;;33.30;14.87;;;;;;;0.93;100.00;99531.84;6716992;26;33821;-68
2021/12/09 07:56:18;;;;;;;38.63;15.90;;;;;;;0.71;100.00;99524.97;6716916;26;34709;-65
2021/12/09 07:59:21;;;;;;;32.70;14.65;;;;;;;0.74;100.00;99529.09;6716766;26;34649;-66
2021/12/09 08:02:24;;;;;;;32.38;14.90;;;;;;;0.77;100.00;99519.25;6716832;26;34855;-66
2021/12/09 08:05:29;;;;;;;32.95;15.13;;;;;;;0.80;100.00;99516.38;6715547;26;33932;-66
2021/12/09 08:08:32;;;;;;;33.22;14.85;;;;;;;0.76;100.00;99529.81;6715554;26;34652;-66
2021/12/09 08:11:37;;;;;;;33.83;15.75;;;;;;;0.87;100.00;99514.09;6716555;26;34024;-66
2021/12/09 08:14:40;;;;;;;33.25;15.55;;;;;;;0.87;100.00;99509.69;6716666;26;34305;-69
2021/12/09 08:17:46;;;;;;;34.00;16.65;;;;;;;0.63;100.00;99501.28;6696794;26;33984;-66
2021/12/09 08:20:51;;;;;;;35.13;15.52;;;;;;;0.70;100.00;99499.00;6717201;26;34867;-66
2021/12/09 08:23:54;;;;;;;33.40;14.80;;;;;;;0.74;100.00;99503.84;6716776;26;35336;-66
2021/12/09 08:26:57;;;;;;;30.67;14.05;;;;;;;0.64;100.00;99522.97;6716428;26;34653;-66
2021/12/09 08:30:05;;;;;;;31.42;14.23;;;;;;;0.73;100.00;99514.41;6717106;26;34716;-66
2021/12/09 08:33:08;;;;;;;34.90;15.48;;;;;;;0.74;100.00;99519.50;6716458;26;33796;-66
2021/12/09 08:36:10;;;;;;;33.28;14.55;;;;;;;0.72;100.00;99504.94;6697075;26;34519;-66
2021/12/09 08:39:13;;;;;;;33.03;15.68;;;;;;;0.82;100.00;99505.81;6716457;26;34230;-66
2021/12/09 08:42:16;;;;;;;37.88;17.30;;;;;;;0.62;100.00;99502.25;6716818;26;34282;-66
2021/12/09 08:45:21;;;;;;;35.17;15.25;;;;;;;0.72;100.00;99495.31;6717495;26;34144;-66
2021/12/09 08:48:26;;;;;;;32.30;15.45;;;;;;;0.68;100.00;99493.06;6715065;26;34407;-66
2021/12/09 08:51:29;;;;;;;35.63;15.77;;;;;;;0.61;100.00;99497.97;6696091;26;34664;-66
2021/12/09 08:54:33;;;;;;;34.72;14.70;;;;;;;0.72;100.00;99495.31;6696460;26;33748;-68
2021/12/09 08:57:37;;;;;;;29.15;15.18;;;;;;;0.79;100.00;99493.84;6696267;26;34716;-67
2021/12/09 09:00:41;;;;;;;33.60;15.90;;;;;;;0.82;100.00;99496.19;6716328;26;35078;-66
2021/12/09 09:03:44;;;;;;;30.10;14.98;;;;;;;0.87;100.00;99488.78;6696886;26;34377;-66
2021/12/09 09:06:50;;;;;;;33.78;15.35;;;;;;;0.80;100.00;99484.22;6716653;26;34175;-68
2021/12/09 09:09:53;;;;;;;31.67;15.55;;;;;;;0.74;100.00;99479.50;6715988;26;35453;-66
2021/12/09 09:12:56;;;;;;;36.88;14.95;;;;;;;0.97;100.00;99486.25;6695009;26;34195;-67
2021/12/09 09:15:59;;;;;;;33.55;14.95;;;;;;;1.01;100.00;99490.28;6716513;26;34661;-67
2021/12/09 09:19:01;;;;;;;31.30;14.73;;;;;;;1.11;100.00;99487.72;6717430;26;33906;-68
2021/12/09 09:22:05;;;;;;;32.85;14.80;;;;;;;1.11;100.00;99493.78;6717264;26;34614;-66
2021/12/09 09:25:14;;;;;;;34.42;14.65;;;;;;;0.97;100.00;99496.69;6717471;26;34124;-66
2021/12/09 09:28:18;;;;;;;34.20;15.50;;;;;;;0.99;100.00;99493.97;6697944;26;34055;-66
2021/12/09 09:31:24;;;;;;;31.00;14.10;;;;;;;1.08;100.00;99508.84;6717452;26;34169;-66
2021/12/09 09:34:27;;;;;;;33.92;14.95;;;;;;;1.02;100.00;99509.34;6696709;26;34710;-68
2021/12/09 09:37:29;;;;;;;32.45;15.45;;;;;;;0.91;100.00;99505.06;6697182;26;34050;-68
2021/12/09 09:40:45;;;;;;;32.38;15.68;;;;;;;1.06;100.00;99502.94;6716851;26;34930;-65
2021/12/09 09:46:50;;;;;;;36.03;15.73;;;;;;;0.96;100.00;99470.72;6716590;26;33992;-66
2021/12/09 09:49:56;;;;;;;32.70;14.60;;;;;;;0.96;100.00;99458.50;6716788;26;35010;-66
2021/12/09 09:53:00;;;;;;;35.30;15.55;;;;;;;0.86;100.00;99427.13;6698042;26;34204;-67
2021/12/09 09:56:08;;;;;;;33.22;15.52;;;;;;;0.86;100.00;99428.91;6717701;26;34726;-67
2021/12/09 09:59:12;;;;;;;31.05;14.40;;;;;;;0.79;100.00;99418.12;6717409;26;34023;-67
2021/12/09 10:02:16;;;;;;;32.75;15.43;;;;;;;0.78;100.00;99419.09;6697643;26;34529;-67
2021/12/09 10:05:25;;;;;;;31.33;15.65;;;;;;;0.94;100.00;99421.22;6716780;26;34519;-67
2021/12/09 10:08:32;;;;;;;34.70;16.45;;;;;;;1.00;100.00;99409.44;6697346;26;34043;-67
2021/12/09 10:11:35;;;;;;;38.50;18.50;;;;;;;0.90;100.00;99393.72;6717531;26;34175;-67
2021/12/09 10:14:38;;;;;;;29.60;15.00;;;;;;;0.94;100.00;99394.28;6716172;26;34368;-67
2021/12/09 10:17:45;;;;;;;36.20;17.00;;;;;;;1.11;100.00;99393.69;6717407;26;34471;-69
2021/12/09 10:20:52;;;;;;;33.20;14.68;;;;;;;1.16;100.00;99389.69;6717530;26;34046;-67
2021/12/09 10:24:07;;;;;;;33.00;14.25;;;;;;;1.38;100.00;99393.91;6697869;26;34029;-68
2021/12/09 10:27:24;;;;;;;32.67;14.85;;;;;;;1.44;100.00;99385.53;6716762;26;34269;-66
2021/12/09 10:30:29;;;;;;;35.15;16.40;;;;;;;1.44;100.00;99389.94;6717787;26;34684;-66
2021/12/09 10:34:27;;;;;;;32.63;14.68;;;;;;;1.43;100.00;99377.81;6717463;26;33970;-67
2021/12/09 10:37:29;;;;;;;31.80;15.27;;;;;;;1.50;100.00;99378.94;6716819;26;33912;-68
2021/12/09 10:40:32;;;;;;;31.65;14.15;;;;;;;1.30;100.00;99370.25;6717842;26;34144;-66
2021/12/09 10:43:48;;;;;;;32.40;14.05;;;;;;;1.20;100.00;99366.78;6718362;26;34911;-68
2021/12/09 10:46:55;;;;;;;32.55;14.48;;;;;;;1.21;100.00;99378.88;6724954;26;34587;-68
2021/12/09 10:50:15;;;;;;;30.33;14.18;;;;;;;1.41;100.00;99380.56;6720468;26;34478;-69
2021/12/09 10:56:30;;;;;;;33.58;15.40;;;;;;;1.44;100.00;99377.69;6717006;26;33906;-68
2021/12/09 10:59:33;;;;;;;29.67;13.88;;;;;;;1.54;100.00;99370.69;6716723;26;33844;-69
2021/12/09 11:02:36;;;;;;;31.37;14.02;;;;;;;1.33;100.00;99375.19;6717543;26;33761;-66
2021/12/09 11:05:50;;;;;;;30.95;14.43;;;;;;;1.48;100.00;99367.78;6716802;26;34025;-69
2021/12/09 11:08:59;;;;;;;31.40;14.60;;;;;;;1.44;100.00;99358.56;6716968;26;33788;-68
2021/12/09 11:12:02;;;;;;;33.80;14.98;;;;;;;1.43;100.00;99359.53;6717472;26;34043;-67
2021/12/09 11:15:05;;;;;;;32.17;14.98;;;;;;;1.28;100.00;99362.53;6716674;26;34946;-67
2021/12/09 11:18:29;;;;;;;32.50;14.00;;;;;;;1.22;100.00;99368.28;6697897;26;34564;-69
2021/12/09 11:21:38;;;;;;;30.92;14.35;;;;;;;1.28;100.00;99372.16;6716970;26;34378;-69
2021/12/09 11:24:45;;;;;;;31.62;15.05;;;;;;;1.20;100.00;99357.16;6697215;26;33739;-69
2021/12/09 11:28:08;;;;;;;30.05;14.70;;;;;;;1.20;100.00;99341.47;6717930;26;33961;-68
2021/12/09 11:31:16;;;;;;;30.90;15.82;;;;;;;1.30;100.00;99334.50;6717424;26;34609;-69
2021/12/09 11:34:23;;;;;;;34.42;14.65;;;;;;;1.39;100.00;99332.03;6716869;26;33967;-69
2021/12/09 11:40:50;;;;;;;30.77;14.75;;;;;;;1.24;100.00;99319.34;6716566;26;34116;-69
2021/12/09 11:43:53;;;;;;;27.55;13.65;;;;;;;1.26;100.00;99325.25;6716848;26;34514;-73
2021/12/09 11:46:56;;;;;;;33.40;15.27;;;;;;;1.26;100.00;99325.25;6696389;26;34180;-70
2021/12/09 11:49:59;;;;;;;30.40;14.40;;;;;;;1.11;100.00;99325.78;6697035;26;33942;-70
2021/12/09 11:53:06;;;;;;;33.17;15.25;;;;;;;1.14;100.00;99322.87;6716152;26;34363;-70
2021/12/09 11:56:41;;;;;;;32.45;15.65;;;;;;;1.07;100.00;99330.41;6716930;26;34352;-70
2021/12/09 12:06:49;;;;;;;36.75;16.45;;;;;;;1.09;100.00;99306.78;6716684;26;34050;-71
2021/12/09 12:13:41;;;;;;;33.65;16.02;;;;;;;1.05;100.00;99293.19;6716999;26;34724;-72
2021/12/09 12:17:03;;;;;;;31.08;15.75;;;;;;;1.07;100.00;99296.47;6696075;26;34303;-72
2021/12/09 12:27:42;;;;;;;36.70;16.58;;;;;;;0.92;100.00;99276.13;6716479;26;33763;-70
2021/12/09 12:31:03;;;;;;;32.33;16.42;;;;;;;0.88;100.00;99263.31;6715400;26;34107;-70
2021/12/09 12:37:16;;;;;;;34.17;16.40;;;;;;;0.93;100.00;99281.19;6716014;26;34609;-70
2021/12/09 12:40:24;;;;;;;39.47;17.33;;;;;;;0.88;100.00;99271.13;6716253;26;33819;-70
2021/12/09 12:43:50;;;;;;;34.33;17.58;;;;;;;0.83;100.00;99268.09;6716789;26;34082;-74
2021/12/09 12:47:02;;;;;;;35.03;16.77;;;;;;;0.81;100.00;99269.22;6695877;26;34509;-74
2021/12/09 12:50:10;;;;;;;40.40;17.20;;;;;;;0.87;100.00;99264.25;6695581;26;34471;-74
2021/12/09 12:53:35;;;;;;;35.53;17.92;;;;;;;0.81;100.00;99271.81;6715271;26;34253;-72
2021/12/09 12:56:46;;;;;;;38.65;18.42;;;;;;;0.74;100.00;99279.34;6695940;26;33831;-72
2021/12/09 13:00:46;;;;;;;41.45;19.05;;;;;;;0.73;100.00;99282.91;6715916;26;34691;-71
2021/12/09 13:03:54;;;;;;;39.63;20.52;;;;;;;0.67;100.00;99295.69;6714956;26;33860;-71
2021/12/09 13:07:10;;;;;;;41.22;20.17;;;;;;;0.62;100.00;99308.28;6716551;26;34089;-70
2021/12/09 13:13:42;;;;;;;46.40;21.52;;;;;;;0.57;100.00;99306.06;6715878;26;34621;-71
2021/12/09 13:17:02;;;;;;;40.53;18.92;;;;;;;0.59;100.00;99304.16;6697657;26;34705;-70
2021/12/09 13:20:15;;;;;;;36.70;18.98;;;;;;;0.49;100.00;99305.88;6696925;26;33850;-71
2021/12/09 13:23:28;;;;;;;38.55;18.62;;;;;;;0.46;100.00;99300.94;6717119;26;33770;-70
2021/12/09 13:26:35;;;;;;;43.72;20.15;;;;;;;0.38;100.00;99301.59;6716200;26;34238;-71
2021/12/09 13:36:42;;;;;;;41.42;19.42;;;;;;;0.22;100.00;99285.56;6716545;26;34672;-70
2021/12/09 13:57:03;;;;;;;43.55;21.50;;;;;;;0.02;100.00;99280.38;6716567;26;34440;-72
2021/12/09 14:00:31;;;;;;;43.30;21.70;;;;;;;0.08;100.00;99272.88;6716322;26;34369;-71
2021/12/09 14:03:35;;;;;;;38.53;18.40;;;;;;;0.11;100.00;99269.16;6718202;26;34638;-74
2021/12/09 14:06:46;;;;;;;41.55;18.73;;;;;;;0.05;100.00;99272.31;6717757;26;34663;-71
2021/12/09 14:10:04;;;;;;;41.28;17.58;;;;;;;-0.04;100.00;99264.28;6717902;26;33888;-71
2021/12/09 14:13:14;;;;;;;42.83;22.35;;;;;;;-0.01;100.00;99266.66;6717399;26;34656;-72
2021/12/09 14:20:03;;;;;;;47.53;19.10;;;;;;;-0.04;100.00;99248.63;6718180;26;33915;-72
2021/12/09 14:23:06;;;;;;;39.92;19.45;;;;;;;-0.22;100.00;99249.34;6716628;26;34611;-72
2021/12/09 14:26:09;;;;;;;42.30;19.98;;;;;;;-0.09;100.00;99240.38;6716981;26;34670;-72
2021/12/09 14:29:13;;;;;;;41.60;17.87;;;;;;;-0.10;100.00;99237.91;6717384;26;34722;-72
2021/12/09 14:32:16;;;;;;;40.17;17.80;;;;;;;-0.03;100.00;99246.84;6717969;26;34680;-72
2021/12/09 14:35:23;;;;;;;35.08;17.25;;;;;;;0.04;100.00;99234.97;6716781;26;34134;-73
2021/12/09 14:38:26;;;;;;;40.72;17.23;;;;;;;0.03;100.00;99238.53;6697253;26;33852;-73
2021/12/09 14:41:29;;;;;;;40.65;17.25;;;;;;;-0.01;100.00;99260.59;6717583;26;34698;-74
2021/12/09 14:44:33;;;;;;;41.33;19.75;;;;;;;0.11;100.00;99261.34;6697742;26;33911;-73
2021/12/09 14:47:36;;;;;;;36.53;18.83;;;;;;;0.09;100.00;99258.88;6715879;26;34643;-72
2021/12/09 14:50:46;;;;;;;38.58;18.37;;;;;;;0.04;100.00;99261.06;6697362;26;34032;-73
2021/12/09 14:53:59;;;;;;;39.88;18.92;;;;;;;0.11;100.00;99254.34;6716941;26;34401;-75
2021/12/09 14:57:08;;;;;;;39.72;19.77;;;;;;;0.12;100.00;99247.34;6695413;26;34352;-73
2021/12/09 15:00:11;;;;;;;43.78;20.88;;;;;;;-0.02;100.00;99254.56;6697262;26;33886;-75
2021/12/09 15:03:29;;;;;;;43.92;20.60;;;;;;;0.03;100.00;99246.34;6716078;26;34333;-72
2021/12/09 15:06:38;;;;;;;41.45;20.98;;;;;;;-0.02;100.00;99243.31;6716986;26;34675;-73
2021/12/09 15:09:41;;;;;;;44.10;21.02;;;;;;;0.02;100.00;99246.47;6717115;26;34500;-73
2021/12/09 15:12:46;;;;;;;36.70;17.95;;;;;;;0.00;100.00;99255.25;6715672;26;33831;-73